Time;durP1;ratioP1;P1;durP2;ratioP2;P2;SDS_P1;SDS_P2;PMS_P1;PMS_P2;Temp;Humidity;BMP_temperature;BMP_pressure;BME280_temperature;BME280_humidity;BME280_pressure;Samples;Min_cycle;Max_cycle;Signal;HPM_P1;HPM_P2
2024/02/15 00:00:38;;;;;;;4.28;1.30;;;12.70;99.90;;;;;;5102177;28;20047;-68
2024/02/15 00:03:06;;;;;;;1.45;0.98;;;12.70;99.90;;;;;;5107121;28;20048;-70
2024/02/15 00:05:36;;;;;;;2.40;1.15;;;12.60;99.90;;;;;;5079539;28;20035;-70
2024/02/15 00:08:04;;;;;;;4.03;1.20;;;12.60;99.90;;;;;;5108384;28;20048;-68
2024/02/15 00:10:31;;;;;;;1.30;1.13;;;12.60;99.90;;;;;;5102934;28;20118;-68
2024/02/15 00:12:58;;;;;;;4.13;0.82;;;12.50;99.90;;;;;;5108733;28;20047;-69
2024/02/15 00:15:25;;;;;;;1.48;0.82;;;12.50;99.90;;;;;;5088142;28;20039;-68
2024/02/15 00:17:52;;;;;;;3.10;0.90;;;12.50;99.90;;;;;;5090284;28;20055;-68
2024/02/15 00:20:20;;;;;;;1.48;0.47;;;12.50;99.90;;;;;;5107664;28;20295;-67
2024/02/15 00:22:47;;;;;;;2.38;0.50;;;12.60;99.90;;;;;;5108135;28;20051;-68
2024/02/15 00:25:14;;;;;;;0.35;0.35;;;12.50;99.90;;;;;;5107305;28;20042;-68
2024/02/15 00:27:41;;;;;;;1.85;0.40;;;12.50;99.90;;;;;;5105401;28;20104;-69
2024/02/15 00:30:09;;;;;;;1.05;0.70;;;12.60;99.90;;;;;;5109686;28;20039;-68
2024/02/15 00:32:39;;;;;;;1.48;0.75;;;12.60;99.90;;;;;;5108931;28;20043;-68
2024/02/15 00:35:07;;;;;;;2.45;1.00;;;12.50;99.90;;;;;;5102764;28;20050;-68
2024/02/15 00:37:38;;;;;;;1.73;1.05;;;12.60;99.90;;;;;;5107330;28;20101;-68
2024/02/15 00:40:05;;;;;;;4.18;1.20;;;12.50;99.90;;;;;;5108874;28;20067;-68
2024/02/15 00:42:32;;;;;;;1.50;0.85;;;12.50;99.90;;;;;;5110703;28;20048;-68
2024/02/15 00:44:59;;;;;;;3.97;1.42;;;12.50;99.90;;;;;;5104332;28;20214;-68
2024/02/15 00:47:28;;;;;;;4.25;1.75;;;12.50;99.90;;;;;;5110735;28;20043;-68
2024/02/15 00:49:55;;;;;;;3.03;1.42;;;12.50;99.90;;;;;;5102862;28;20040;-68
2024/02/15 00:52:23;;;;;;;4.85;1.98;;;12.50;99.90;;;;;;5107014;28;20058;-67
2024/02/15 00:54:50;;;;;;;8.48;1.88;;;12.50;99.90;;;;;;5106163;28;20547;-67
2024/02/15 00:57:17;;;;;;;5.70;1.80;;;12.50;99.90;;;;;;5106700;28;20066;-68
2024/02/15 00:59:44;;;;;;;3.47;1.33;;;12.50;99.90;;;;;;5106927;28;20082;-69
2024/02/15 01:02:12;;;;;;;4.80;1.90;;;12.60;99.90;;;;;;5102628;28;20047;-70
2024/02/15 01:04:39;;;;;;;7.78;2.55;;;12.60;99.90;;;;;;5101260;28;20063;-70
2024/02/15 01:07:07;;;;;;;4.32;1.92;;;12.60;99.90;;;;;;5106602;28;20079;-69
2024/02/15 01:09:35;;;;;;;4.43;1.50;;;12.60;99.90;;;;;;5107559;28;20677;-68
2024/02/15 01:12:03;;;;;;;2.10;1.52;;;12.60;99.90;;;;;;5102517;28;20044;-69
2024/02/15 01:14:31;;;;;;;4.57;1.17;;;12.60;99.90;;;;;;5106575;28;20536;-68
2024/02/15 01:16:58;;;;;;;3.55;1.58;;;12.60;99.90;;;;;;5102152;28;20050;-68
2024/02/15 01:19:25;;;;;;;5.28;1.02;;;12.60;99.90;;;;;;5097636;28;20510;-69
2024/02/15 01:21:53;;;;;;;2.88;1.23;;;12.60;99.90;;;;;;5106987;28;20513;-69
2024/02/15 01:24:20;;;;;;;4.90;1.50;;;12.60;99.90;;;;;;5087847;28;20044;-68
2024/02/15 01:26:49;;;;;;;2.80;1.08;;;12.60;99.90;;;;;;5101069;28;20136;-67
2024/02/15 01:29:16;;;;;;;3.85;1.08;;;12.60;99.90;;;;;;5087379;28;20043;-67
2024/02/15 01:31:43;;;;;;;4.32;1.38;;;12.60;99.90;;;;;;5106362;28;20078;-69
2024/02/15 01:34:10;;;;;;;4.07;1.25;;;12.60;99.90;;;;;;5080394;28;20052;-68
2024/02/15 01:36:37;;;;;;;5.68;2.17;;;12.60;99.90;;;;;;5104938;28;21040;-68
2024/02/15 01:39:04;;;;;;;5.53;1.85;;;12.60;99.90;;;;;;5106077;28;20059;-68
2024/02/15 01:41:32;;;;;;;3.38;1.77;;;12.60;99.90;;;;;;5103930;28;20476;-68
2024/02/15 01:43:59;;;;;;;4.70;1.48;;;12.60;99.90;;;;;;5090693;28;20102;-68
2024/02/15 01:46:26;;;;;;;5.03;1.67;;;12.60;99.90;;;;;;5102421;28;20044;-68
2024/02/15 01:48:53;;;;;;;6.03;1.73;;;12.60;99.90;;;;;;5088428;28;20298;-68
2024/02/15 01:51:20;;;;;;;2.80;1.75;;;12.60;99.90;;;;;;5082284;28;20123;-68
2024/02/15 01:53:47;;;;;;;5.65;1.90;;;12.60;99.90;;;;;;5071313;28;20050;-68
2024/02/15 01:56:14;;;;;;;3.75;1.70;;;12.60;99.90;;;;;;5103075;28;20451;-68
2024/02/15 01:58:41;;;;;;;4.60;2.00;;;12.70;99.90;;;;;;5077276;28;20557;-68
2024/02/15 02:01:07;;;;;;;2.95;1.60;;;12.70;99.90;;;;;;5085898;28;20097;-68
2024/02/15 02:03:34;;;;;;;4.05;1.67;;;12.60;99.90;;;;;;5088074;28;20048;-69
2024/02/15 02:06:02;;;;;;;4.30;1.65;;;12.70;99.90;;;;;;5083593;28;20046;-68
2024/02/15 02:08:29;;;;;;;3.38;1.73;;;12.60;99.90;;;;;;5104598;28;20078;-70
2024/02/15 02:10:57;;;;;;;4.38;2.10;;;12.60;99.90;;;;;;5085276;28;20135;-71
2024/02/15 02:13:23;;;;;;;3.00;1.88;;;12.60;99.90;;;;;;5068031;28;20050;-68
2024/02/15 02:15:51;;;;;;;4.22;2.13;;;12.60;99.90;;;;;;5078095;28;20047;-67
2024/02/15 02:18:18;;;;;;;6.57;2.08;;;12.60;99.90;;;;;;5092755;28;20044;-67
2024/02/15 02:20:45;;;;;;;3.85;1.65;;;12.60;99.90;;;;;;5102891;28;20047;-68
2024/02/15 02:23:16;;;;;;;4.18;1.25;;;12.60;99.90;;;;;;5103194;28;20043;-68
2024/02/15 02:25:43;;;;;;;2.63;1.33;;;12.60;99.90;;;;;;5095502;28;20564;-68
2024/02/15 02:28:10;;;;;;;2.78;1.00;;;12.60;99.90;;;;;;5098121;28;20043;-67
2024/02/15 02:30:41;;;;;;;0.90;0.70;;;12.60;99.90;;;;;;5099940;28;20047;-68
2024/02/15 02:33:18;;;;;;;1.30;1.02;;;12.50;99.90;;;;;;5105310;28;20043;-69
2024/02/15 02:35:46;;;;;;;2.20;0.90;;;12.60;99.90;;;;;;5104971;28;20376;-67
2024/02/15 02:38:13;;;;;;;1.85;0.60;;;12.50;99.90;;;;;;5104015;28;20136;-68
2024/02/15 02:40:41;;;;;;;0.70;0.45;;;12.50;99.90;;;;;;5079213;28;20124;-67
2024/02/15 02:43:08;;;;;;;0.35;0.30;;;12.60;99.90;;;;;;5065897;28;20515;-67
2024/02/15 02:45:35;;;;;;;2.03;0.47;;;12.50;99.90;;;;;;5102804;28;20036;-68
2024/02/15 02:48:01;;;;;;;0.38;0.30;;;12.50;99.90;;;;;;5103785;28;20586;-67
2024/02/15 02:50:29;;;;;;;0.47;0.35;;;12.60;99.90;;;;;;5098624;28;20047;-68
2024/02/15 02:52:55;;;;;;;0.20;0.20;;;12.60;99.90;;;;;;5079560;28;20070;-69
2024/02/15 02:55:22;;;;;;;0.30;0.30;;;12.50;99.90;;;;;;5106001;28;20488;-69
2024/02/15 02:57:49;;;;;;;3.85;0.43;;;12.50;99.90;;;;;;5104679;28;20051;-68
2024/02/15 03:00:17;;;;;;;0.20;0.20;;;12.50;99.90;;;;;;5093683;28;20096;-68
2024/02/15 03:02:44;;;;;;;0.20;0.20;;;12.60;99.90;;;;;;5088964;28;20354;-68
2024/02/15 03:05:12;;;;;;;0.10;0.10;;;12.60;99.90;;;;;;5083821;28;20051;-68
2024/02/15 03:07:42;;;;;;;1.08;0.30;;;12.50;99.90;;;;;;5087382;28;20545;-68
2024/02/15 03:10:09;;;;;;;0.40;0.30;;;12.60;99.90;;;;;;5099952;28;20409;-69
2024/02/15 03:12:37;;;;;;;0.20;0.20;;;12.60;99.90;;;;;;5101358;28;20131;-67
2024/02/15 03:15:04;;;;;;;0.20;0.20;;;12.60;99.90;;;;;;5101839;28;20328;-67
2024/02/15 03:17:31;;;;;;;1.77;0.43;;;12.60;99.90;;;;;;5091652;28;20052;-68
2024/02/15 03:19:58;;;;;;;0.20;0.20;;;12.60;99.90;;;;;;5096602;28;20115;-67
2024/02/15 03:22:27;;;;;;;0.15;0.13;;;12.60;99.90;;;;;;5099479;28;20048;-67
2024/02/15 03:24:54;;;;;;;0.10;0.10;;;12.60;99.90;;;;;;5101032;28;20287;-67
2024/02/15 03:27:22;;;;;;;0.20;0.20;;;12.60;99.90;;;;;;5104283;28;20171;-67
2024/02/15 03:29:52;;;;;;;0.20;0.20;;;12.60;99.90;;;;;;5104167;28;20314;-68
2024/02/15 03:32:18;;;;;;;0.10;0.10;;;12.70;99.90;;;;;;5102778;28;20330;-68
2024/02/15 03:34:45;;;;;;;0.50;0.50;;;12.70;99.90;;;;;;5103624;28;20050;-68
2024/02/15 03:37:13;;;;;;;0.40;0.30;;;12.60;99.90;;;;;;5107350;28;20123;-68
2024/02/15 03:39:39;;;;;;;1.27;0.30;;;12.70;99.90;;;;;;5102881;28;20543;-68
2024/02/15 03:42:06;;;;;;;3.67;0.50;;;12.70;99.90;;;;;;5102443;28;20036;-67
2024/02/15 03:44:33;;;;;;;0.77;0.40;;;12.70;99.90;;;;;;5105584;28;20058;-68
2024/02/15 03:47:00;;;;;;;0.40;0.40;;;12.70;99.90;;;;;;5109418;28;20198;-68
2024/02/15 03:49:27;;;;;;;0.40;0.30;;;12.70;99.90;;;;;;5104475;28;20557;-68
2024/02/15 03:51:54;;;;;;;1.45;0.20;;;12.70;99.90;;;;;;5107310;28;20295;-69
2024/02/15 03:54:23;;;;;;;0.40;0.30;;;12.70;99.90;;;;;;5102066;28;20071;-69
2024/02/15 03:56:54;;;;;;;0.45;0.40;;;12.70;99.90;;;;;;5105491;28;20052;-67
2024/02/15 03:59:26;;;;;;;0.60;0.40;;;12.70;99.90;;;;;;5110504;28;20075;-68
2024/02/15 04:01:54;;;;;;;0.55;0.28;;;12.70;99.90;;;;;;5099075;28;20098;-68
2024/02/15 04:04:21;;;;;;;0.60;0.43;;;12.70;99.90;;;;;;5087696;28;20516;-68
2024/02/15 04:06:53;;;;;;;0.88;0.50;;;12.70;99.90;;;;;;5101886;28;20046;-68
2024/02/15 04:09:20;;;;;;;0.75;0.55;;;12.70;99.90;;;;;;5102741;28;20051;-68
2024/02/15 04:11:52;;;;;;;0.95;0.57;;;12.70;99.90;;;;;;5108836;28;20067;-68
2024/02/15 04:14:19;;;;;;;1.20;0.80;;;12.70;99.90;;;;;;5101786;28;20051;-67
2024/02/15 04:16:46;;;;;;;1.98;0.68;;;12.80;99.90;;;;;;5112711;28;20088;-67
2024/02/15 04:19:13;;;;;;;1.15;0.80;;;12.80;99.90;;;;;;5101977;28;20131;-68
2024/02/15 04:21:40;;;;;;;0.82;0.57;;;12.80;99.90;;;;;;5104959;28;20039;-67
2024/02/15 04:24:07;;;;;;;3.15;0.73;;;12.80;99.90;;;;;;5107070;28;20051;-68
2024/02/15 04:26:35;;;;;;;1.48;0.60;;;12.80;99.90;;;;;;5071156;28;20040;-68
2024/02/15 04:29:03;;;;;;;2.10;0.88;;;12.80;99.90;;;;;;5079369;28;20056;-69
2024/02/15 04:31:36;;;;;;;0.95;0.60;;;12.90;99.90;;;;;;5083703;28;20044;-67
2024/02/15 04:34:03;;;;;;;2.65;0.70;;;12.90;99.90;;;;;;5098063;28;20044;-68
2024/02/15 04:36:33;;;;;;;2.35;0.93;;;12.90;99.90;;;;;;5095274;28;20220;-68
2024/02/15 04:39:02;;;;;;;1.83;0.88;;;12.90;99.90;;;;;;5105005;28;20044;-69
2024/02/15 04:41:30;;;;;;;3.58;1.38;;;13.00;99.90;;;;;;5103580;28;20146;-69
2024/02/15 04:43:57;;;;;;;2.78;1.25;;;13.00;99.90;;;;;;5082305;28;20407;-68
2024/02/15 04:46:24;;;;;;;3.83;1.52;;;13.00;99.90;;;;;;5101396;28;20063;-68
2024/02/15 04:48:51;;;;;;;4.53;2.17;;;13.00;99.90;;;;;;5096493;28;20151;-68
2024/02/15 04:51:19;;;;;;;5.32;3.22;;;13.00;99.90;;;;;;5093954;28;20445;-68
2024/02/15 04:53:47;;;;;;;5.18;1.75;;;13.00;99.90;;;;;;5102020;28;20458;-67
2024/02/15 04:56:15;;;;;;;9.43;2.10;;;13.00;99.90;;;;;;5082765;28;20059;-68
2024/02/15 04:58:45;;;;;;;6.30;2.60;;;13.00;99.90;;;;;;5102384;28;20051;-67
2024/02/15 05:01:13;;;;;;;10.10;2.63;;;13.10;99.90;;;;;;5102352;28;20055;-67
2024/02/15 05:03:41;;;;;;;4.38;2.33;;;13.10;99.90;;;;;;5098495;28;20035;-67
2024/02/15 05:06:09;;;;;;;8.48;2.53;;;13.10;99.90;;;;;;5103159;28;20048;-67
2024/02/15 05:08:41;;;;;;;6.85;2.45;;;13.10;99.90;;;;;;5106185;28;20039;-67
2024/02/15 05:11:17;;;;;;;6.97;2.65;;;13.10;99.90;;;;;;5102629;28;20571;-67
2024/02/15 05:13:45;;;;;;;7.80;2.25;;;13.10;99.90;;;;;;5087566;28;20450;-68
2024/02/15 05:16:12;;;;;;;8.27;3.20;;;13.10;99.90;;;;;;5098741;28;20043;-67
2024/02/15 05:18:42;;;;;;;5.78;2.75;;;13.10;99.90;;;;;;5105796;28;20056;-68
2024/02/15 05:21:09;;;;;;;4.68;2.58;;;13.10;99.90;;;;;;5099885;28;20131;-68
2024/02/15 05:23:37;;;;;;;5.95;3.38;;;13.10;99.90;;;;;;5102022;28;20093;-68
2024/02/15 05:26:04;;;;;;;5.72;2.50;;;13.10;99.90;;;;;;5093781;28;20067;-67
2024/02/15 05:28:31;;;;;;;12.10;3.03;;;13.10;99.90;;;;;;5097413;28;20052;-68
2024/02/15 05:31:16;;;;;;;7.57;3.00;;;13.10;99.90;;;;;;5107141;28;20056;-68
2024/02/15 05:33:44;;;;;;;6.13;2.97;;;13.20;99.90;;;;;;5104899;28;20070;-69
2024/02/15 05:36:12;;;;;;;6.05;2.67;;;13.20;99.90;;;;;;5083536;28;20051;-69
2024/02/15 05:38:39;;;;;;;10.45;3.40;;;13.20;99.90;;;;;;5101816;28;20055;-69
2024/02/15 05:41:09;;;;;;;9.55;3.97;;;13.20;99.90;;;;;;5090915;28;20050;-67
2024/02/15 05:43:36;;;;;;;10.32;3.75;;;13.20;99.90;;;;;;5100644;28;20048;-67
2024/02/15 05:46:04;;;;;;;7.93;3.15;;;13.20;99.90;;;;;;5106186;28;20089;-67
2024/02/15 05:48:30;;;;;;;10.73;3.30;;;13.20;99.90;;;;;;5105062;28;20043;-69
2024/02/15 05:50:59;;;;;;;7.90;3.20;;;13.30;99.90;;;;;;5096698;28;20541;-67
2024/02/15 05:53:26;;;;;;;9.65;3.55;;;13.30;99.90;;;;;;5103924;28;20067;-68
2024/02/15 05:55:53;;;;;;;11.25;3.47;;;13.30;99.90;;;;;;5099900;28;20071;-68
2024/02/15 05:58:20;;;;;;;10.07;3.70;;;13.30;99.90;;;;;;5104423;28;20040;-68
2024/02/15 06:00:49;;;;;;;6.28;3.58;;;13.30;99.90;;;;;;5099937;28;20067;-68
2024/02/15 06:03:16;;;;;;;10.77;3.88;;;13.30;99.90;;;;;;5102619;28;20120;-67
2024/02/15 06:05:44;;;;;;;10.85;3.67;;;13.20;99.90;;;;;;5106243;28;20290;-67
2024/02/15 06:08:12;;;;;;;11.35;3.97;;;13.30;99.90;;;;;;5105346;28;20492;-67
2024/02/15 06:10:40;;;;;;;11.13;3.60;;;13.30;99.90;;;;;;5096173;28;20074;-67
2024/02/15 06:13:09;;;;;;;12.27;3.70;;;13.30;99.90;;;;;;5099492;28;20043;-68
2024/02/15 06:15:36;;;;;;;13.82;3.65;;;13.20;99.90;;;;;;5100006;28;20071;-67
2024/02/15 06:18:10;;;;;;;11.55;3.63;;;13.20;99.90;;;;;;5077699;28;20059;-67
2024/02/15 06:20:38;;;;;;;10.80;3.38;;;13.20;99.90;;;;;;5101649;28;20408;-68
2024/02/15 06:23:07;;;;;;;11.95;2.45;;;13.20;99.90;;;;;;5093432;28;20483;-68
2024/02/15 06:25:37;;;;;;;14.55;2.92;;;13.20;99.90;;;;;;5101788;28;20100;-68
2024/02/15 06:28:13;;;;;;;5.15;2.35;;;13.10;99.90;;;;;;5080169;28;20052;-68
2024/02/15 06:41:42;;;;;;;9.30;2.92;;;13.00;99.90;;;;;;5096623;28;20052;-68
2024/02/15 06:44:09;;;;;;;7.00;2.58;;;13.00;99.90;;;;;;5078217;28;20055;-69
2024/02/15 06:46:36;;;;;;;14.65;2.95;;;12.90;99.90;;;;;;5098831;28;20519;-69
2024/02/15 06:49:04;;;;;;;9.70;2.75;;;12.80;99.90;;;;;;5103349;28;20047;-68
2024/02/15 06:51:32;;;;;;;5.82;2.72;;;12.80;99.90;;;;;;5098180;28;20121;-68
2024/02/15 06:53:58;;;;;;;10.02;2.85;;;12.80;99.90;;;;;;5066399;28;20056;-69
2024/02/15 06:56:25;;;;;;;10.85;2.90;;;12.80;99.90;;;;;;5098045;28;20071;-68
2024/02/15 06:58:53;;;;;;;7.32;3.13;;;12.80;99.90;;;;;;5102295;28;20060;-68
2024/02/15 07:01:20;;;;;;;9.43;2.22;;;12.80;99.90;;;;;;5104153;28;20133;-68
2024/02/15 07:03:47;;;;;;;8.20;2.50;;;12.80;99.90;;;;;;5085674;28;20059;-68
2024/02/15 07:06:14;;;;;;;10.80;4.43;;;12.70;99.90;;;;;;5098038;28;20044;-68
2024/02/15 07:08:41;;;;;;;7.20;2.83;;;12.70;99.90;;;;;;5095258;28;20044;-68
2024/02/15 07:11:09;;;;;;;7.97;2.67;;;12.70;99.90;;;;;;5082674;28;20048;-69
2024/02/15 07:13:37;;;;;;;5.65;2.22;;;12.70;99.90;;;;;;5103919;28;20058;-69
2024/02/15 07:16:07;;;;;;;10.63;2.63;;;12.70;99.90;;;;;;5093674;28;20042;-69
2024/02/15 07:18:34;;;;;;;7.50;2.42;;;12.60;99.90;;;;;;5076128;28;20085;-68
2024/02/15 07:21:03;;;;;;;4.95;2.40;;;12.70;99.90;;;;;;5094133;28;20104;-69
2024/02/15 07:23:30;;;;;;;5.68;2.13;;;12.60;99.90;;;;;;5101135;28;20071;-70
2024/02/15 07:25:59;;;;;;;5.95;2.35;;;12.60;99.90;;;;;;5096731;28;20512;-68
2024/02/15 07:28:26;;;;;;;8.48;2.17;;;12.60;99.90;;;;;;5101019;28;20036;-69
2024/02/15 07:30:54;;;;;;;9.82;3.10;;;12.70;99.90;;;;;;5103774;28;20400;-67
2024/02/15 07:33:23;;;;;;;6.47;2.13;;;12.60;99.90;;;;;;5082436;28;20123;-68
2024/02/15 07:35:50;;;;;;;7.15;2.28;;;12.60;99.90;;;;;;5102330;28;20044;-68
2024/02/15 07:38:18;;;;;;;12.57;2.33;;;12.70;99.90;;;;;;5101083;28;20062;-71
2024/02/15 07:40:44;;;;;;;8.98;2.50;;;12.60;99.90;;;;;;5097057;28;20062;-68
2024/02/15 07:43:11;;;;;;;7.10;2.00;;;12.60;99.90;;;;;;5104257;28;20071;-68
2024/02/15 07:45:38;;;;;;;6.18;1.98;;;12.70;99.90;;;;;;5100916;28;20047;-69
2024/02/15 07:48:05;;;;;;;14.05;2.65;;;12.70;99.90;;;;;;5099618;28;20051;-69
2024/02/15 07:50:33;;;;;;;5.00;2.17;;;12.60;99.90;;;;;;5107446;28;20120;-69
2024/02/15 07:52:59;;;;;;;6.97;2.40;;;12.70;99.90;;;;;;5104746;28;20051;-69
2024/02/15 07:55:27;;;;;;;9.18;2.33;;;12.70;99.90;;;;;;5103880;28;20472;-69
2024/02/15 07:57:55;;;;;;;5.78;2.15;;;12.70;99.90;;;;;;5102447;28;20082;-69
2024/02/15 08:00:22;;;;;;;12.45;2.67;;;12.70;99.90;;;;;;5105362;28;20051;-68
2024/02/15 08:02:49;;;;;;;7.30;2.55;;;12.70;99.90;;;;;;5101214;28;20484;-67
2024/02/15 08:05:16;;;;;;;7.75;2.20;;;12.70;99.90;;;;;;5105123;28;20514;-68
2024/02/15 08:07:44;;;;;;;9.07;2.53;;;12.70;99.90;;;;;;5102205;28;20079;-69
2024/02/15 08:10:15;;;;;;;7.78;2.17;;;12.70;99.90;;;;;;5101980;28;20048;-69
2024/02/15 08:12:42;;;;;;;7.88;1.75;;;12.70;99.90;;;;;;5085938;28;20043;-68
2024/02/15 08:15:12;;;;;;;7.65;2.50;;;12.70;99.90;;;;;;5102241;28;20101;-67
2024/02/15 08:17:45;;;;;;;7.57;2.47;;;12.80;99.90;;;;;;5098761;28;20051;-68
2024/02/15 08:20:13;;;;;;;5.20;2.45;;;12.80;99.90;;;;;;5079844;28;20548;-67
2024/02/15 08:22:40;;;;;;;7.88;2.40;;;12.80;99.90;;;;;;5106026;28;20099;-67
2024/02/15 08:25:11;;;;;;;4.70;1.73;;;12.90;99.90;;;;;;5106124;28;20286;-68
2024/02/15 08:27:42;;;;;;;6.72;1.98;;;12.90;99.90;;;;;;5100389;28;20490;-68
2024/02/15 08:30:10;;;;;;;10.75;2.95;;;12.90;99.90;;;;;;5083092;28;20047;-67
2024/02/15 08:32:39;;;;;;;6.22;2.13;;;12.90;99.90;;;;;;5098671;28;20039;-67
2024/02/15 08:35:07;;;;;;;5.57;2.25;;;12.90;99.90;;;;;;5088737;28;20136;-68
2024/02/15 08:37:38;;;;;;;8.10;2.58;;;12.90;99.90;;;;;;5086930;28;20043;-68
2024/02/15 08:40:10;;;;;;;3.63;1.92;;;13.00;99.90;;;;;;5106413;28;20046;-67
2024/02/15 08:42:41;;;;;;;12.10;2.53;;;13.00;99.90;;;;;;5100792;28;20050;-66
2024/02/15 08:45:09;;;;;;;6.68;2.20;;;13.00;99.90;;;;;;5105650;28;20052;-67
2024/02/15 08:47:37;;;;;;;10.23;2.25;;;13.00;99.90;;;;;;5099984;28;20043;-68
2024/02/15 08:50:05;;;;;;;5.28;2.65;;;13.00;99.90;;;;;;5077871;28;20048;-67
2024/02/15 08:52:32;;;;;;;6.35;2.05;;;13.00;99.90;;;;;;5106480;28;20044;-67
2024/02/15 08:55:00;;;;;;;8.57;2.40;;;13.00;99.90;;;;;;5107648;28;20101;-67
2024/02/15 08:57:27;;;;;;;14.50;2.83;;;13.10;99.90;;;;;;5107307;28;20132;-68
2024/02/15 08:59:54;;;;;;;5.75;2.60;;;13.10;99.90;;;;;;5101261;28;20093;-67
2024/02/15 09:02:22;;;;;;;10.07;2.05;;;13.20;99.90;;;;;;5101854;28;20083;-68
2024/02/15 09:04:48;;;;;;;10.55;2.50;;;13.20;99.90;;;;;;5106324;28;20503;-67
2024/02/15 09:07:15;;;;;;;11.52;1.98;;;13.20;99.90;;;;;;5104766;28;20109;-66
2024/02/15 09:09:43;;;;;;;5.95;2.00;;;13.20;99.90;;;;;;4744573;28;10000463;-66
2024/02/15 09:12:09;;;;;;;9.98;2.20;;;13.20;99.90;;;;;;5099451;28;20923;-68
2024/02/15 09:14:37;;;;;;;4.47;2.00;;;13.30;99.90;;;;;;5095946;28;20432;-68
2024/02/15 09:17:07;;;;;;;7.68;2.35;;;13.30;99.90;;;;;;5098663;28;20066;-68
2024/02/15 09:19:34;;;;;;;7.00;2.05;;;13.50;99.90;;;;;;5103258;28;20075;-68
2024/02/15 09:22:04;;;;;;;6.00;2.05;;;13.80;99.90;;;;;;5080955;28;20063;-67
2024/02/15 09:24:33;;;;;;;10.40;2.30;;;13.90;99.90;;;;;;5099326;28;20511;-68
2024/02/15 09:27:01;;;;;;;8.27;2.25;;;14.10;99.90;;;;;;5086418;28;20043;-68
2024/02/15 09:29:34;;;;;;;9.85;2.05;;;14.10;99.90;;;;;;5103611;28;20050;-67
2024/02/15 09:32:02;;;;;;;9.77;2.53;;;14.00;99.90;;;;;;5081828;28;20496;-67
2024/02/15 09:34:29;;;;;;;5.90;2.00;;;14.00;99.90;;;;;;5093588;28;20055;-67
2024/02/15 09:36:56;;;;;;;5.03;2.10;;;14.00;99.90;;;;;;5082638;28;20043;-68
2024/02/15 09:39:23;;;;;;;12.55;2.28;;;13.90;99.90;;;;;;5086507;28;20056;-67
2024/02/15 09:41:55;;;;;;;9.13;3.22;;;13.90;99.90;;;;;;5102846;28;20140;-66
2024/02/15 09:44:22;;;;;;;9.85;3.17;;;14.00;99.90;;;;;;5052970;28;20039;-67
2024/02/15 09:46:50;;;;;;;10.20;4.05;;;14.00;99.90;;;;;;5082499;28;20047;-67
2024/02/15 09:49:17;;;;;;;9.30;2.35;;;14.10;99.90;;;;;;5084942;28;20144;-65
2024/02/15 09:51:44;;;;;;;8.65;2.78;;;14.10;99.90;;;;;;5100532;28;20052;-68
2024/02/15 09:54:13;;;;;;;9.98;2.50;;;14.10;99.90;;;;;;5084504;28;20096;-67
2024/02/15 09:56:39;;;;;;;8.45;2.05;;;14.10;99.90;;;;;;5083295;28;20144;-67
2024/02/15 09:59:07;;;;;;;8.52;2.25;;;14.20;99.90;;;;;;5084644;28;20142;-68
2024/02/15 10:01:34;;;;;;;9.63;2.58;;;14.10;99.90;;;;;;5082196;28;20171;-68
2024/02/15 10:04:01;;;;;;;9.23;2.10;;;14.20;99.90;;;;;;5067414;28;20101;-68
2024/02/15 10:06:27;;;;;;;5.50;1.65;;;14.10;99.90;;;;;;5084693;28;20043;-68
2024/02/15 10:08:57;;;;;;;4.47;1.90;;;14.10;99.90;;;;;;5083043;28;20492;-68
2024/02/15 10:11:23;;;;;;;5.97;2.05;;;14.10;99.90;;;;;;5060400;28;20544;-67
2024/02/15 10:13:50;;;;;;;10.18;2.13;;;14.10;99.90;;;;;;5095091;28;20062;-67
2024/02/15 10:16:25;;;;;;;11.00;2.28;;;14.20;99.90;;;;;;5098967;28;20048;-66
2024/02/15 10:18:51;;;;;;;9.70;1.88;;;14.20;99.90;;;;;;5098810;28;20055;-67
2024/02/15 10:21:29;;;;;;;7.13;2.08;;;14.20;99.90;;;;;;5105681;28;20479;-68
2024/02/15 10:24:07;;;;;;;8.77;2.42;;;14.20;99.90;;;;;;5066952;28;20124;-68
2024/02/15 10:26:35;;;;;;;6.47;2.30;;;14.10;99.90;;;;;;5082287;28;20052;-68
2024/02/15 10:29:10;;;;;;;7.35;2.00;;;14.10;99.90;;;;;;5083918;28;20050;-67
2024/02/15 10:31:52;;;;;;;11.10;1.88;;;14.10;99.90;;;;;;5081361;28;20044;-68
2024/02/15 10:34:19;;;;;;;5.55;1.70;;;14.10;99.90;;;;;;5068185;28;20450;-68
2024/02/15 10:36:46;;;;;;;6.15;2.00;;;14.10;99.90;;;;;;5102454;28;20124;-68
2024/02/15 10:39:16;;;;;;;7.75;2.10;;;14.10;99.90;;;;;;5104292;28;20043;-68
2024/02/15 10:41:51;;;;;;;7.72;1.63;;;14.10;99.90;;;;;;5102240;28;20112;-67
2024/02/15 10:44:20;;;;;;;4.38;1.58;;;14.20;99.90;;;;;;5065922;28;20122;-69
2024/02/15 10:46:51;;;;;;;6.63;1.58;;;14.20;99.90;;;;;;5103186;28;20429;-67
2024/02/15 10:49:18;;;;;;;7.82;2.00;;;14.20;99.90;;;;;;5085883;28;20044;-67
2024/02/15 10:51:57;;;;;;;3.80;1.48;;;14.20;99.90;;;;;;5103636;28;20086;-68
2024/02/15 10:54:46;;;;;;;10.80;1.60;;;14.30;99.90;;;;;;5086157;28;20035;-67
2024/02/15 10:57:15;;;;;;;10.68;3.45;;;14.30;99.90;;;;;;5089328;28;20531;-67
2024/02/15 10:59:58;;;;;;;4.10;1.70;;;14.40;99.90;;;;;;5069426;28;20130;-67
2024/02/15 11:02:36;;;;;;;5.57;1.45;;;14.40;99.90;;;;;;5101046;28;20511;-67
2024/02/15 11:05:09;;;;;;;6.47;2.15;;;14.40;99.90;;;;;;5105410;28;20055;-66
2024/02/15 11:07:37;;;;;;;6.78;1.80;;;14.40;99.90;;;;;;5105998;28;20096;-67
2024/02/15 11:10:10;;;;;;;11.82;2.30;;;14.40;99.90;;;;;;5096802;28;20043;-67
2024/02/15 11:12:37;;;;;;;8.85;2.08;;;14.50;99.90;;;;;;5103334;28;20047;-67
2024/02/15 11:15:06;;;;;;;11.82;3.65;;;14.50;99.90;;;;;;5104522;28;20103;-67
2024/02/15 11:17:39;;;;;;;6.38;1.77;;;14.50;99.90;;;;;;5105057;28;20327;-65
2024/02/15 11:20:08;;;;;;;3.58;1.45;;;14.50;99.90;;;;;;5104996;28;20130;-69
2024/02/15 11:22:36;;;;;;;7.82;1.90;;;14.60;99.90;;;;;;5104766;28;20043;-67
2024/02/15 11:25:11;;;;;;;5.03;1.98;;;14.70;99.90;;;;;;5104008;28;20051;-68
2024/02/15 11:27:39;;;;;;;6.03;1.65;;;14.70;99.90;;;;;;5099928;28;20050;-68
2024/02/15 11:30:09;;;;;;;4.32;1.40;;;14.80;99.90;;;;;;5085826;28;20048;-67
2024/02/15 11:32:49;;;;;;;5.80;2.10;;;14.80;99.90;;;;;;5104658;28;20047;-67
2024/02/15 11:35:17;;;;;;;6.07;1.75;;;14.90;99.90;;;;;;5099743;28;20075;-69
2024/02/15 11:37:47;;;;;;;5.30;1.88;;;14.90;99.90;;;;;;5098948;28;20124;-69
2024/02/15 11:40:16;;;;;;;6.93;1.70;;;14.90;99.90;;;;;;5100671;28;20055;-68
2024/02/15 11:42:44;;;;;;;9.73;2.13;;;15.00;99.90;;;;;;5082807;28;20044;-68
2024/02/15 11:45:11;;;;;;;4.80;2.20;;;15.10;99.90;;;;;;5083872;28;20134;-67
2024/02/15 11:47:42;;;;;;;5.93;2.10;;;15.20;99.90;;;;;;5083510;28;20119;-67
2024/02/15 11:50:14;;;;;;;3.22;1.73;;;15.20;99.90;;;;;;5103461;28;20051;-67
2024/02/15 11:52:45;;;;;;;7.13;2.15;;;15.30;99.90;;;;;;5104679;28;20043;-66
2024/02/15 11:55:15;;;;;;;7.30;2.00;;;15.30;99.90;;;;;;5101561;28;20048;-67
2024/02/15 11:57:50;;;;;;;4.85;2.05;;;15.40;99.90;;;;;;5083626;28;20117;-67
2024/02/15 12:19:56;;;;;;;5.43;2.20;;;15.90;99.90;;;;;;5080476;28;20052;-68
2024/02/15 12:22:35;;;;;;;6.63;3.80;;;15.90;99.90;;;;;;5082988;28;20035;-68
2024/02/15 12:25:11;;;;;;;7.10;1.85;;;16.00;99.90;;;;;;5076194;28;20049;-67
2024/02/15 12:27:38;;;;;;;5.97;2.00;;;16.00;99.90;;;;;;5081916;28;20068;-67
2024/02/15 12:30:07;;;;;;;7.53;2.25;;;16.10;99.90;;;;;;5087589;28;20052;-67
2024/02/15 12:32:34;;;;;;;7.18;2.60;;;16.30;99.90;;;;;;5086278;28;20093;-67
2024/02/15 12:35:17;;;;;;;9.43;2.53;;;16.50;99.90;;;;;;5086592;28;20052;-67
2024/02/15 12:38:08;;;;;;;3.63;1.73;;;16.60;99.90;;;;;;5081200;28;20113;-67
2024/02/15 12:40:36;;;;;;;4.97;1.60;;;16.70;99.90;;;;;;5088648;28;20050;-68
2024/02/15 12:43:08;;;;;;;9.52;2.03;;;16.80;99.90;;;;;;5085031;28;20102;-69
2024/02/15 12:45:39;;;;;;;6.82;1.40;;;16.80;99.90;;;;;;5086111;28;20476;-68
2024/02/15 12:48:07;;;;;;;4.53;1.45;;;16.90;99.90;;;;;;5085196;28;20059;-68
2024/02/15 12:50:34;;;;;;;3.72;1.42;;;16.80;99.90;;;;;;5088111;28;20055;-68
2024/02/15 12:53:05;;;;;;;4.85;1.85;;;16.90;99.90;;;;;;5086054;28;20044;-67
2024/02/15 12:55:37;;;;;;;2.08;1.45;;;16.90;99.90;;;;;;5088485;28;20503;-67
2024/02/15 12:58:09;;;;;;;5.00;1.52;;;17.00;99.90;;;;;;5103488;28;20506;-66
2024/02/15 13:00:38;;;;;;;4.72;1.73;;;17.00;99.90;;;;;;5071910;28;20080;-67
2024/02/15 13:03:10;;;;;;;2.58;1.40;;;17.00;99.90;;;;;;5088781;28;20067;-68
2024/02/15 13:05:38;;;;;;;9.00;1.30;;;17.00;99.90;;;;;;5081718;28;20066;-68
2024/02/15 13:08:10;;;;;;;8.77;1.52;;;17.10;99.90;;;;;;5087981;28;20484;-68
2024/02/15 13:10:38;;;;;;;3.55;1.45;;;17.00;99.90;;;;;;5106651;28;20419;-67
2024/02/15 13:13:07;;;;;;;3.25;1.30;;;17.10;99.90;;;;;;5107498;28;20050;-67
2024/02/15 13:15:34;;;;;;;5.35;1.17;;;17.00;99.90;;;;;;5107227;28;20280;-69
2024/02/15 13:18:04;;;;;;;1.58;1.08;;;16.90;99.90;;;;;;5103738;28;20040;-67
2024/02/15 13:20:35;;;;;;;12.27;1.83;;;16.90;99.90;;;;;;5101008;28;20135;-69
2024/02/15 13:23:08;;;;;;;4.28;1.02;;;16.90;99.90;;;;;;5087742;28;20042;-68